sensor_id;sensor_type;location;lat;lon;timestamp;P1;durP1;ratioP1;P2;durP2;ratioP2
44480;SDS011;30184;42.018;23.670;2022-11-25T00:01:38;32.83;;;15.95;;
44480;SDS011;30184;42.018;23.670;2022-11-25T00:04:07;33.90;;;15.00;;
44480;SDS011;30184;42.018;23.670;2022-11-25T00:06:36;41.63;;;18.73;;
44480;SDS011;30184;42.018;23.670;2022-11-25T00:09:06;30.35;;;16.58;;
44480;SDS011;30184;42.018;23.670;2022-11-25T00:11:38;35.03;;;15.57;;
44480;SDS011;30184;42.018;23.670;2022-11-25T00:14:11;32.67;;;15.48;;
44480;SDS011;30184;42.018;23.670;2022-11-25T00:16:41;29.10;;;13.60;;
44480;SDS011;30184;42.018;23.670;2022-11-25T00:19:14;25.25;;;12.35;;
44480;SDS011;30184;42.018;23.670;2022-11-25T00:21:43;22.00;;;12.52;;
44480;SDS011;30184;42.018;23.670;2022-11-25T00:24:13;27.83;;;14.52;;
44480;SDS011;30184;42.018;23.670;2022-11-25T00:26:44;25.55;;;12.60;;
44480;SDS011;30184;42.018;23.670;2022-11-25T00:29:13;27.60;;;12.57;;
44480;SDS011;30184;42.018;23.670;2022-11-25T00:31:42;20.10;;;11.10;;
44480;SDS011;30184;42.018;23.670;2022-11-25T00:34:12;22.63;;;10.93;;
44480;SDS011;30184;42.018;23.670;2022-11-25T00:36:41;64.90;;;21.90;;
44480;SDS011;30184;42.018;23.670;2022-11-25T00:39:12;52.97;;;20.45;;
44480;SDS011;30184;42.018;23.670;2022-11-25T00:41:43;36.03;;;16.98;;
44480;SDS011;30184;42.018;23.670;2022-11-25T00:44:31;82.57;;;28.77;;
44480;SDS011;30184;42.018;23.670;2022-11-25T00:47:04;123.65;;;43.67;;
44480;SDS011;30184;42.018;23.670;2022-11-25T00:49:35;71.90;;;29.63;;
44480;SDS011;30184;42.018;23.670;2022-11-25T00:52:05;49.13;;;21.77;;
44480;SDS011;30184;42.018;23.670;2022-11-25T00:54:35;39.30;;;17.85;;
44480;SDS011;30184;42.018;23.670;2022-11-25T00:57:05;31.67;;;14.10;;
44480;SDS011;30184;42.018;23.670;2022-11-25T00:59:34;19.80;;;11.30;;
44480;SDS011;30184;42.018;23.670;2022-11-25T01:02:03;24.33;;;11.55;;
44480;SDS011;30184;42.018;23.670;2022-11-25T01:04:33;25.15;;;11.55;;
44480;SDS011;30184;42.018;23.670;2022-11-25T01:07:02;18.88;;;10.75;;
44480;SDS011;30184;42.018;23.670;2022-11-25T01:09:34;21.48;;;11.57;;
44480;SDS011;30184;42.018;23.670;2022-11-25T01:12:04;23.48;;;12.85;;
44480;SDS011;30184;42.018;23.670;2022-11-25T01:14:35;22.15;;;11.32;;
44480;SDS011;30184;42.018;23.670;2022-11-25T01:17:04;22.23;;;11.55;;
44480;SDS011;30184;42.018;23.670;2022-11-25T01:19:34;21.90;;;11.20;;
44480;SDS011;30184;42.018;23.670;2022-11-25T01:22:06;22.92;;;13.02;;
44480;SDS011;30184;42.018;23.670;2022-11-25T01:24:36;21.98;;;11.27;;
44480;SDS011;30184;42.018;23.670;2022-11-25T01:27:06;23.23;;;12.32;;
44480;SDS011;30184;42.018;23.670;2022-11-25T01:29:35;20.58;;;11.70;;
44480;SDS011;30184;42.018;23.670;2022-11-25T01:32:07;20.30;;;10.52;;
44480;SDS011;30184;42.018;23.670;2022-11-25T01:34:38;24.90;;;10.70;;
44480;SDS011;30184;42.018;23.670;2022-11-25T01:37:07;20.52;;;11.52;;
44480;SDS011;30184;42.018;23.670;2022-11-25T01:39:36;21.83;;;11.77;;
44480;SDS011;30184;42.018;23.670;2022-11-25T01:42:07;20.58;;;11.63;;
44480;SDS011;30184;42.018;23.670;2022-11-25T01:44:37;18.13;;;10.13;;
44480;SDS011;30184;42.018;23.670;2022-11-25T01:47:10;22.63;;;13.52;;
44480;SDS011;30184;42.018;23.670;2022-11-25T01:49:43;30.75;;;16.38;;
44480;SDS011;30184;42.018;23.670;2022-11-25T01:52:16;21.40;;;11.10;;
44480;SDS011;30184;42.018;23.670;2022-11-25T01:54:52;17.70;;;10.00;;
44480;SDS011;30184;42.018;23.670;2022-11-25T01:57:27;32.20;;;16.65;;
44480;SDS011;30184;42.018;23.670;2022-11-25T02:00:02;24.58;;;14.52;;
44480;SDS011;30184;42.018;23.670;2022-11-25T02:02:43;30.58;;;15.48;;
44480;SDS011;30184;42.018;23.670;2022-11-25T02:05:15;45.88;;;23.02;;
44480;SDS011;30184;42.018;23.670;2022-11-25T02:07:48;19.08;;;10.55;;
44480;SDS011;30184;42.018;23.670;2022-11-25T02:10:20;16.38;;;9.50;;
44480;SDS011;30184;42.018;23.670;2022-11-25T02:12:54;39.65;;;23.00;;
44480;SDS011;30184;42.018;23.670;2022-11-25T02:15:23;22.85;;;14.18;;
44480;SDS011;30184;42.018;23.670;2022-11-25T02:17:53;18.50;;;9.63;;
44480;SDS011;30184;42.018;23.670;2022-11-25T02:20:22;16.83;;;9.57;;
44480;SDS011;30184;42.018;23.670;2022-11-25T02:22:56;13.68;;;8.35;;
44480;SDS011;30184;42.018;23.670;2022-11-25T02:25:33;18.83;;;10.18;;
44480;SDS011;30184;42.018;23.670;2022-11-25T02:28:08;21.05;;;10.43;;
44480;SDS011;30184;42.018;23.670;2022-11-25T02:30:41;20.23;;;10.40;;
44480;SDS011;30184;42.018;23.670;2022-11-25T02:33:11;16.52;;;9.23;;
44480;SDS011;30184;42.018;23.670;2022-11-25T02:35:41;17.92;;;9.18;;
44480;SDS011;30184;42.018;23.670;2022-11-25T02:38:12;18.83;;;10.40;;
44480;SDS011;30184;42.018;23.670;2022-11-25T02:40:46;18.77;;;11.07;;
44480;SDS011;30184;42.018;23.670;2022-11-25T02:43:19;18.95;;;10.55;;
44480;SDS011;30184;42.018;23.670;2022-11-25T02:45:52;32.58;;;11.95;;
44480;SDS011;30184;42.018;23.670;2022-11-25T02:48:26;23.17;;;11.23;;
44480;SDS011;30184;42.018;23.670;2022-11-25T02:51:12;23.33;;;9.82;;
44480;SDS011;30184;42.018;23.670;2022-11-25T02:53:43;47.35;;;20.45;;
44480;SDS011;30184;42.018;23.670;2022-11-25T02:56:15;91.18;;;32.35;;
44480;SDS011;30184;42.018;23.670;2022-11-25T02:58:44;75.90;;;30.17;;
44480;SDS011;30184;42.018;23.670;2022-11-25T03:01:13;105.50;;;40.90;;
44480;SDS011;30184;42.018;23.670;2022-11-25T03:03:43;61.70;;;23.83;;
44480;SDS011;30184;42.018;23.670;2022-11-25T03:06:12;57.03;;;24.10;;
44480;SDS011;30184;42.018;23.670;2022-11-25T03:08:41;47.95;;;22.08;;
44480;SDS011;30184;42.018;23.670;2022-11-25T03:11:12;37.22;;;16.80;;
44480;SDS011;30184;42.018;23.670;2022-11-25T03:13:43;41.03;;;19.80;;
44480;SDS011;30184;42.018;23.670;2022-11-25T03:16:11;35.53;;;16.77;;
44480;SDS011;30184;42.018;23.670;2022-11-25T03:18:43;29.42;;;13.48;;
44480;SDS011;30184;42.018;23.670;2022-11-25T03:21:14;27.88;;;15.00;;
44480;SDS011;30184;42.018;23.670;2022-11-25T03:23:43;31.83;;;16.58;;
44480;SDS011;30184;42.018;23.670;2022-11-25T03:26:12;36.78;;;19.20;;
44480;SDS011;30184;42.018;23.670;2022-11-25T03:28:43;40.75;;;20.67;;
44480;SDS011;30184;42.018;23.670;2022-11-25T03:31:12;41.95;;;18.35;;
44480;SDS011;30184;42.018;23.670;2022-11-25T03:33:43;35.00;;;17.98;;
44480;SDS011;30184;42.018;23.670;2022-11-25T03:36:11;34.88;;;16.90;;
44480;SDS011;30184;42.018;23.670;2022-11-25T03:38:41;26.48;;;14.63;;
44480;SDS011;30184;42.018;23.670;2022-11-25T03:41:10;26.05;;;14.55;;
44480;SDS011;30184;42.018;23.670;2022-11-25T03:43:40;29.65;;;14.90;;
44480;SDS011;30184;42.018;23.670;2022-11-25T03:46:11;27.73;;;16.23;;
44480;SDS011;30184;42.018;23.670;2022-11-25T03:48:40;28.85;;;16.35;;
44480;SDS011;30184;42.018;23.670;2022-11-25T03:51:09;31.13;;;18.73;;
44480;SDS011;30184;42.018;23.670;2022-11-25T03:53:38;33.58;;;17.60;;
44480;SDS011;30184;42.018;23.670;2022-11-25T03:56:09;37.25;;;20.38;;
44480;SDS011;30184;42.018;23.670;2022-11-25T03:58:38;46.58;;;24.25;;
44480;SDS011;30184;42.018;23.670;2022-11-25T04:01:10;49.08;;;27.10;;
44480;SDS011;30184;42.018;23.670;2022-11-25T04:03:40;48.05;;;26.40;;
44480;SDS011;30184;42.018;23.670;2022-11-25T04:06:10;44.63;;;25.17;;
44480;SDS011;30184;42.018;23.670;2022-11-25T04:08:39;35.35;;;21.15;;
44480;SDS011;30184;42.018;23.670;2022-11-25T04:11:09;47.58;;;24.00;;
44480;SDS011;30184;42.018;23.670;2022-11-25T04:13:42;48.50;;;25.85;;
44480;SDS011;30184;42.018;23.670;2022-11-25T04:16:17;40.63;;;22.83;;
44480;SDS011;30184;42.018;23.670;2022-11-25T04:18:51;54.03;;;26.58;;
44480;SDS011;30184;42.018;23.670;2022-11-25T04:21:20;52.30;;;24.98;;
44480;SDS011;30184;42.018;23.670;2022-11-25T04:23:49;45.10;;;25.10;;
44480;SDS011;30184;42.018;23.670;2022-11-25T04:26:19;53.53;;;27.70;;
44480;SDS011;30184;42.018;23.670;2022-11-25T04:28:49;55.80;;;28.15;;
44480;SDS011;30184;42.018;23.670;2022-11-25T04:31:20;69.20;;;29.30;;
44480;SDS011;30184;42.018;23.670;2022-11-25T04:33:49;67.60;;;33.80;;
44480;SDS011;30184;42.018;23.670;2022-11-25T04:36:25;72.55;;;35.20;;
44480;SDS011;30184;42.018;23.670;2022-11-25T04:38:55;62.05;;;32.72;;
44480;SDS011;30184;42.018;23.670;2022-11-25T04:41:24;46.03;;;26.58;;
44480;SDS011;30184;42.018;23.670;2022-11-25T04:43:53;58.38;;;28.48;;
44480;SDS011;30184;42.018;23.670;2022-11-25T04:46:24;72.85;;;39.40;;
44480;SDS011;30184;42.018;23.670;2022-11-25T04:49:00;63.67;;;31.85;;
44480;SDS011;30184;42.018;23.670;2022-11-25T04:51:29;66.40;;;37.17;;
44480;SDS011;30184;42.018;23.670;2022-11-25T04:54:02;57.17;;;30.85;;
44480;SDS011;30184;42.018;23.670;2022-11-25T04:56:33;83.07;;;42.85;;
44480;SDS011;30184;42.018;23.670;2022-11-25T04:59:03;72.65;;;39.85;;
44480;SDS011;30184;42.018;23.670;2022-11-25T05:02:02;70.45;;;39.17;;
44480;SDS011;30184;42.018;23.670;2022-11-25T05:07:08;42.58;;;24.05;;
44480;SDS011;30184;42.018;23.670;2022-11-25T05:09:38;81.95;;;38.47;;
44480;SDS011;30184;42.018;23.670;2022-11-25T05:12:26;75.07;;;37.78;;
44480;SDS011;30184;42.018;23.670;2022-11-25T05:14:57;64.18;;;33.13;;
44480;SDS011;30184;42.018;23.670;2022-11-25T05:17:29;81.57;;;41.72;;
44480;SDS011;30184;42.018;23.670;2022-11-25T05:19:59;148.07;;;65.00;;
44480;SDS011;30184;42.018;23.670;2022-11-25T05:22:30;123.80;;;58.35;;
44480;SDS011;30184;42.018;23.670;2022-11-25T05:25:02;97.68;;;46.13;;
44480;SDS011;30184;42.018;23.670;2022-11-25T05:27:38;92.88;;;45.05;;
44480;SDS011;30184;42.018;23.670;2022-11-25T05:30:09;118.68;;;59.60;;
44480;SDS011;30184;42.018;23.670;2022-11-25T05:32:41;71.32;;;39.17;;
44480;SDS011;30184;42.018;23.670;2022-11-25T05:35:11;75.28;;;36.60;;
44480;SDS011;30184;42.018;23.670;2022-11-25T05:37:40;56.38;;;32.78;;
44480;SDS011;30184;42.018;23.670;2022-11-25T05:40:10;51.33;;;26.42;;
44480;SDS011;30184;42.018;23.670;2022-11-25T05:42:59;63.13;;;31.55;;
44480;SDS011;30184;42.018;23.670;2022-11-25T05:45:31;47.70;;;24.02;;
44480;SDS011;30184;42.018;23.670;2022-11-25T05:48:02;98.07;;;46.67;;
44480;SDS011;30184;42.018;23.670;2022-11-25T05:50:32;120.10;;;58.67;;
44480;SDS011;30184;42.018;23.670;2022-11-25T05:53:03;118.20;;;57.47;;
44480;SDS011;30184;42.018;23.670;2022-11-25T05:55:34;155.88;;;73.10;;
44480;SDS011;30184;42.018;23.670;2022-11-25T05:58:08;145.10;;;70.93;;
44480;SDS011;30184;42.018;23.670;2022-11-25T06:00:42;122.05;;;63.78;;
44480;SDS011;30184;42.018;23.670;2022-11-25T06:03:12;118.13;;;60.67;;
44480;SDS011;30184;42.018;23.670;2022-11-25T06:05:41;162.40;;;77.38;;
44480;SDS011;30184;42.018;23.670;2022-11-25T06:08:11;162.82;;;74.78;;
44480;SDS011;30184;42.018;23.670;2022-11-25T06:10:40;161.65;;;80.00;;
44480;SDS011;30184;42.018;23.670;2022-11-25T06:13:09;162.57;;;78.03;;
44480;SDS011;30184;42.018;23.670;2022-11-25T06:15:39;165.48;;;76.50;;
44480;SDS011;30184;42.018;23.670;2022-11-25T06:18:11;186.93;;;89.97;;
44480;SDS011;30184;42.018;23.670;2022-11-25T06:20:43;407.10;;;152.02;;
44480;SDS011;30184;42.018;23.670;2022-11-25T06:23:12;222.18;;;102.20;;
44480;SDS011;30184;42.018;23.670;2022-11-25T06:25:42;274.95;;;119.63;;
44480;SDS011;30184;42.018;23.670;2022-11-25T06:28:11;234.88;;;112.85;;
44480;SDS011;30184;42.018;23.670;2022-11-25T06:30:45;167.93;;;87.40;;
44480;SDS011;30184;42.018;23.670;2022-11-25T06:33:27;183.50;;;88.32;;
44480;SDS011;30184;42.018;23.670;2022-11-25T06:36:01;240.35;;;108.18;;
44480;SDS011;30184;42.018;23.670;2022-11-25T06:38:31;250.07;;;128.60;;
44480;SDS011;30184;42.018;23.670;2022-11-25T06:41:00;748.15;;;404.77;;
44480;SDS011;30184;42.018;23.670;2022-11-25T06:43:30;143.48;;;74.80;;
44480;SDS011;30184;42.018;23.670;2022-11-25T06:46:01;204.60;;;101.45;;
44480;SDS011;30184;42.018;23.670;2022-11-25T06:48:33;214.63;;;112.15;;
44480;SDS011;30184;42.018;23.670;2022-11-25T06:51:04;143.23;;;78.50;;
44480;SDS011;30184;42.018;23.670;2022-11-25T06:53:34;145.15;;;81.68;;
44480;SDS011;30184;42.018;23.670;2022-11-25T06:56:05;121.07;;;62.15;;
44480;SDS011;30184;42.018;23.670;2022-11-25T06:58:36;140.20;;;70.65;;
44480;SDS011;30184;42.018;23.670;2022-11-25T07:01:07;133.85;;;70.93;;
44480;SDS011;30184;42.018;23.670;2022-11-25T07:03:42;171.27;;;88.85;;
44480;SDS011;30184;42.018;23.670;2022-11-25T07:06:13;103.30;;;55.85;;
44480;SDS011;30184;42.018;23.670;2022-11-25T07:08:44;166.30;;;82.25;;
44480;SDS011;30184;42.018;23.670;2022-11-25T07:11:15;97.53;;;51.35;;
44480;SDS011;30184;42.018;23.670;2022-11-25T07:13:45;195.57;;;86.72;;
44480;SDS011;30184;42.018;23.670;2022-11-25T07:16:14;192.32;;;96.68;;
44480;SDS011;30184;42.018;23.670;2022-11-25T07:18:45;184.50;;;89.45;;
44480;SDS011;30184;42.018;23.670;2022-11-25T07:21:15;76.35;;;44.55;;
44480;SDS011;30184;42.018;23.670;2022-11-25T07:23:45;119.35;;;56.80;;
44480;SDS011;30184;42.018;23.670;2022-11-25T07:26:15;93.90;;;53.33;;
44480;SDS011;30184;42.018;23.670;2022-11-25T07:28:46;59.58;;;34.67;;
44480;SDS011;30184;42.018;23.670;2022-11-25T07:31:17;66.35;;;38.40;;
44480;SDS011;30184;42.018;23.670;2022-11-25T07:33:51;49.60;;;29.40;;
44480;SDS011;30184;42.018;23.670;2022-11-25T07:36:21;55.08;;;31.02;;
44480;SDS011;30184;42.018;23.670;2022-11-25T07:38:51;45.65;;;25.98;;
44480;SDS011;30184;42.018;23.670;2022-11-25T07:41:22;67.95;;;32.72;;
44480;SDS011;30184;42.018;23.670;2022-11-25T07:43:52;77.47;;;41.22;;
44480;SDS011;30184;42.018;23.670;2022-11-25T07:46:25;65.35;;;37.53;;
44480;SDS011;30184;42.018;23.670;2022-11-25T07:48:57;37.40;;;22.88;;
44480;SDS011;30184;42.018;23.670;2022-11-25T07:51:30;35.53;;;22.33;;
44480;SDS011;30184;42.018;23.670;2022-11-25T07:54:01;84.68;;;48.80;;
44480;SDS011;30184;42.018;23.670;2022-11-25T07:56:32;82.75;;;45.55;;
44480;SDS011;30184;42.018;23.670;2022-11-25T07:59:02;68.40;;;38.45;;
44480;SDS011;30184;42.018;23.670;2022-11-25T08:01:32;43.72;;;26.33;;
44480;SDS011;30184;42.018;23.670;2022-11-25T08:04:03;64.80;;;35.53;;
44480;SDS011;30184;42.018;23.670;2022-11-25T08:06:32;92.88;;;45.92;;
44480;SDS011;30184;42.018;23.670;2022-11-25T08:09:05;97.22;;;49.13;;
44480;SDS011;30184;42.018;23.670;2022-11-25T08:11:35;70.28;;;39.08;;
44480;SDS011;30184;42.018;23.670;2022-11-25T08:14:04;50.75;;;26.40;;
44480;SDS011;30184;42.018;23.670;2022-11-25T08:16:34;49.13;;;24.67;;
44480;SDS011;30184;42.018;23.670;2022-11-25T08:19:06;87.82;;;42.97;;
44480;SDS011;30184;42.018;23.670;2022-11-25T08:21:37;51.97;;;26.90;;
44480;SDS011;30184;42.018;23.670;2022-11-25T08:24:07;75.70;;;39.22;;
44480;SDS011;30184;42.018;23.670;2022-11-25T08:26:40;66.10;;;35.78;;
44480;SDS011;30184;42.018;23.670;2022-11-25T08:29:10;107.40;;;44.22;;
44480;SDS011;30184;42.018;23.670;2022-11-25T08:31:42;41.28;;;22.05;;
44480;SDS011;30184;42.018;23.670;2022-11-25T08:34:15;50.10;;;26.85;;
44480;SDS011;30184;42.018;23.670;2022-11-25T08:39:16;17.02;;;9.85;;
44480;SDS011;30184;42.018;23.670;2022-11-25T08:42:07;24.63;;;12.93;;
44480;SDS011;30184;42.018;23.670;2022-11-25T08:44:36;36.95;;;18.25;;
44480;SDS011;30184;42.018;23.670;2022-11-25T08:47:05;42.55;;;24.02;;
44480;SDS011;30184;42.018;23.670;2022-11-25T08:49:35;56.83;;;32.67;;
44480;SDS011;30184;42.018;23.670;2022-11-25T08:52:07;62.28;;;36.08;;
44480;SDS011;30184;42.018;23.670;2022-11-25T08:54:36;29.33;;;15.82;;
44480;SDS011;30184;42.018;23.670;2022-11-25T08:57:05;35.20;;;18.83;;
44480;SDS011;30184;42.018;23.670;2022-11-25T08:59:35;37.13;;;21.85;;
44480;SDS011;30184;42.018;23.670;2022-11-25T09:02:05;18.10;;;10.68;;
44480;SDS011;30184;42.018;23.670;2022-11-25T09:04:35;26.70;;;8.80;;
44480;SDS011;30184;42.018;23.670;2022-11-25T09:07:04;22.17;;;10.20;;
44480;SDS011;30184;42.018;23.670;2022-11-25T09:09:34;44.13;;;20.38;;
44480;SDS011;30184;42.018;23.670;2022-11-25T09:12:03;30.50;;;16.95;;
44480;SDS011;30184;42.018;23.670;2022-11-25T09:14:33;19.63;;;10.32;;
44480;SDS011;30184;42.018;23.670;2022-11-25T09:17:02;27.40;;;12.88;;
44480;SDS011;30184;42.018;23.670;2022-11-25T09:19:37;37.78;;;10.43;;
44480;SDS011;30184;42.018;23.670;2022-11-25T09:22:06;17.15;;;8.93;;
44480;SDS011;30184;42.018;23.670;2022-11-25T09:24:36;21.98;;;9.85;;
44480;SDS011;30184;42.018;23.670;2022-11-25T09:27:05;14.15;;;6.43;;
44480;SDS011;30184;42.018;23.670;2022-11-25T09:29:34;16.08;;;7.53;;
44480;SDS011;30184;42.018;23.670;2022-11-25T09:32:03;22.42;;;9.82;;
44480;SDS011;30184;42.018;23.670;2022-11-25T09:34:32;15.55;;;5.95;;
44480;SDS011;30184;42.018;23.670;2022-11-25T09:37:03;37.10;;;15.50;;
44480;SDS011;30184;42.018;23.670;2022-11-25T09:39:32;17.75;;;9.45;;
44480;SDS011;30184;42.018;23.670;2022-11-25T09:42:06;18.55;;;9.77;;
44480;SDS011;30184;42.018;23.670;2022-11-25T09:45:10;26.10;;;12.60;;
44480;SDS011;30184;42.018;23.670;2022-11-25T09:48:07;74.95;;;29.42;;
44480;SDS011;30184;42.018;23.670;2022-11-25T09:50:51;9.65;;;4.80;;
44480;SDS011;30184;42.018;23.670;2022-11-25T09:53:33;8.65;;;3.90;;
44480;SDS011;30184;42.018;23.670;2022-11-25T09:56:10;3.72;;;2.05;;
44480;SDS011;30184;42.018;23.670;2022-11-25T09:58:46;12.40;;;1.88;;
44480;SDS011;30184;42.018;23.670;2022-11-25T10:01:20;13.05;;;7.03;;
44480;SDS011;30184;42.018;23.670;2022-11-25T10:03:52;12.48;;;5.65;;
44480;SDS011;30184;42.018;23.670;2022-11-25T10:06:26;22.10;;;9.80;;
44480;SDS011;30184;42.018;23.670;2022-11-25T10:08:59;13.88;;;6.95;;
44480;SDS011;30184;42.018;23.670;2022-11-25T10:11:33;8.18;;;3.80;;
44480;SDS011;30184;42.018;23.670;2022-11-25T10:14:12;21.75;;;8.35;;
44480;SDS011;30184;42.018;23.670;2022-11-25T10:16:47;9.57;;;4.65;;
44480;SDS011;30184;42.018;23.670;2022-11-25T10:19:22;11.32;;;5.85;;
44480;SDS011;30184;42.018;23.670;2022-11-25T10:21:56;9.73;;;4.20;;
44480;SDS011;30184;42.018;23.670;2022-11-25T10:24:27;13.07;;;6.45;;
44480;SDS011;30184;42.018;23.670;2022-11-25T10:26:56;4.80;;;1.60;;
44480;SDS011;30184;42.018;23.670;2022-11-25T10:29:30;33.30;;;15.77;;
44480;SDS011;30184;42.018;23.670;2022-11-25T10:32:03;9.68;;;5.72;;
44480;SDS011;30184;42.018;23.670;2022-11-25T10:34:48;13.45;;;6.75;;
44480;SDS011;30184;42.018;23.670;2022-11-25T10:37:26;19.33;;;8.48;;
44480;SDS011;30184;42.018;23.670;2022-11-25T10:40:01;15.82;;;7.63;;
44480;SDS011;30184;42.018;23.670;2022-11-25T10:42:30;22.23;;;11.68;;
44480;SDS011;30184;42.018;23.670;2022-11-25T10:45:03;23.83;;;10.00;;
44480;SDS011;30184;42.018;23.670;2022-11-25T10:47:36;10.38;;;5.57;;
44480;SDS011;30184;42.018;23.670;2022-11-25T10:50:19;22.00;;;11.25;;
44480;SDS011;30184;42.018;23.670;2022-11-25T10:52:56;17.40;;;8.13;;
44480;SDS011;30184;42.018;23.670;2022-11-25T10:55:30;16.20;;;7.13;;
44480;SDS011;30184;42.018;23.670;2022-11-25T10:58:18;38.45;;;14.40;;
44480;SDS011;30184;42.018;23.670;2022-11-25T11:01:00;13.10;;;5.15;;
44480;SDS011;30184;42.018;23.670;2022-11-25T11:03:32;27.35;;;10.63;;
44480;SDS011;30184;42.018;23.670;2022-11-25T11:06:02;41.55;;;19.33;;
44480;SDS011;30184;42.018;23.670;2022-11-25T11:08:36;60.40;;;30.88;;
44480;SDS011;30184;42.018;23.670;2022-11-25T11:11:15;61.60;;;30.63;;
44480;SDS011;30184;42.018;23.670;2022-11-25T11:13:45;45.50;;;21.77;;
44480;SDS011;30184;42.018;23.670;2022-11-25T11:16:20;23.83;;;11.80;;
44480;SDS011;30184;42.018;23.670;2022-11-25T11:18:54;31.88;;;16.40;;
44480;SDS011;30184;42.018;23.670;2022-11-25T11:21:28;28.00;;;17.40;;
44480;SDS011;30184;42.018;23.670;2022-11-25T11:23:59;13.77;;;7.78;;
44480;SDS011;30184;42.018;23.670;2022-11-25T11:26:31;8.55;;;4.45;;
44480;SDS011;30184;42.018;23.670;2022-11-25T11:29:03;19.55;;;10.18;;
44480;SDS011;30184;42.018;23.670;2022-11-25T11:31:36;12.10;;;4.53;;
44480;SDS011;30184;42.018;23.670;2022-11-25T11:34:12;13.25;;;6.80;;
44480;SDS011;30184;42.018;23.670;2022-11-25T11:37:07;44.72;;;23.42;;
44480;SDS011;30184;42.018;23.670;2022-11-25T11:39:49;37.58;;;12.45;;
44480;SDS011;30184;42.018;23.670;2022-11-25T11:42:34;9.55;;;3.72;;
44480;SDS011;30184;42.018;23.670;2022-11-25T11:45:16;8.82;;;2.75;;
44480;SDS011;30184;42.018;23.670;2022-11-25T11:48:06;7.63;;;3.65;;
44480;SDS011;30184;42.018;23.670;2022-11-25T11:50:41;2.55;;;1.40;;
44480;SDS011;30184;42.018;23.670;2022-11-25T11:53:17;6.05;;;2.30;;
44480;SDS011;30184;42.018;23.670;2022-11-25T11:55:53;5.43;;;1.50;;
44480;SDS011;30184;42.018;23.670;2022-11-25T11:58:50;5.97;;;2.90;;
44480;SDS011;30184;42.018;23.670;2022-11-25T12:01:36;7.47;;;2.95;;
44480;SDS011;30184;42.018;23.670;2022-11-25T12:04:16;7.15;;;3.55;;
44480;SDS011;30184;42.018;23.670;2022-11-25T12:06:55;15.95;;;8.02;;
44480;SDS011;30184;42.018;23.670;2022-11-25T12:09:31;15.85;;;6.43;;
44480;SDS011;30184;42.018;23.670;2022-11-25T12:12:05;4.28;;;2.20;;
44480;SDS011;30184;42.018;23.670;2022-11-25T12:14:40;5.35;;;2.10;;
44480;SDS011;30184;42.018;23.670;2022-11-25T12:17:12;13.45;;;4.35;;
44480;SDS011;30184;42.018;23.670;2022-11-25T12:19:48;7.43;;;3.60;;
44480;SDS011;30184;42.018;23.670;2022-11-25T12:22:24;27.23;;;5.15;;
44480;SDS011;30184;42.018;23.670;2022-11-25T12:25:00;3.33;;;1.92;;
44480;SDS011;30184;42.018;23.670;2022-11-25T12:27:36;5.82;;;3.35;;
44480;SDS011;30184;42.018;23.670;2022-11-25T12:30:11;4.30;;;2.50;;
44480;SDS011;30184;42.018;23.670;2022-11-25T12:32:49;4.00;;;1.95;;
44480;SDS011;30184;42.018;23.670;2022-11-25T12:35:27;12.18;;;5.65;;
44480;SDS011;30184;42.018;23.670;2022-11-25T12:38:10;21.88;;;8.18;;
44480;SDS011;30184;42.018;23.670;2022-11-25T12:40:48;18.23;;;8.40;;
44480;SDS011;30184;42.018;23.670;2022-11-25T12:43:33;14.02;;;6.07;;
44480;SDS011;30184;42.018;23.670;2022-11-25T12:46:21;9.98;;;3.42;;
44480;SDS011;30184;42.018;23.670;2022-11-25T12:48:56;10.52;;;5.15;;
44480;SDS011;30184;42.018;23.670;2022-11-25T12:51:39;9.25;;;4.07;;
44480;SDS011;30184;42.018;23.670;2022-11-25T12:54:23;7.00;;;3.00;;
44480;SDS011;30184;42.018;23.670;2022-11-25T13:00:20;10.32;;;4.85;;
44480;SDS011;30184;42.018;23.670;2022-11-25T13:06:23;22.95;;;10.70;;
44480;SDS011;30184;42.018;23.670;2022-11-25T13:09:08;23.25;;;11.45;;
44480;SDS011;30184;42.018;23.670;2022-11-25T13:11:56;13.05;;;5.95;;
44480;SDS011;30184;42.018;23.670;2022-11-25T13:14:40;6.20;;;3.80;;
44480;SDS011;30184;42.018;23.670;2022-11-25T13:17:31;11.23;;;5.38;;
44480;SDS011;30184;42.018;23.670;2022-11-25T13:29:06;12.75;;;6.35;;
44480;SDS011;30184;42.018;23.670;2022-11-25T13:32:36;12.52;;;7.65;;
44480;SDS011;30184;42.018;23.670;2022-11-25T13:38:36;15.32;;;6.25;;
44480;SDS011;30184;42.018;23.670;2022-11-25T13:41:32;16.55;;;7.68;;
44480;SDS011;30184;42.018;23.670;2022-11-25T13:44:13;13.45;;;5.47;;
44480;SDS011;30184;42.018;23.670;2022-11-25T13:46:55;6.50;;;3.35;;
44480;SDS011;30184;42.018;23.670;2022-11-25T13:49:27;15.00;;;5.18;;
44480;SDS011;30184;42.018;23.670;2022-11-25T13:52:03;153.30;;;55.47;;
44480;SDS011;30184;42.018;23.670;2022-11-25T13:54:54;5.32;;;3.28;;
44480;SDS011;30184;42.018;23.670;2022-11-25T13:57:25;37.78;;;16.90;;
44480;SDS011;30184;42.018;23.670;2022-11-25T13:59:57;22.35;;;10.68;;
44480;SDS011;30184;42.018;23.670;2022-11-25T14:02:38;12.05;;;6.95;;
44480;SDS011;30184;42.018;23.670;2022-11-25T14:05:29;8.35;;;3.78;;
44480;SDS011;30184;42.018;23.670;2022-11-25T14:08:20;7.28;;;4.07;;
44480;SDS011;30184;42.018;23.670;2022-11-25T14:11:17;12.45;;;6.80;;
44480;SDS011;30184;42.018;23.670;2022-11-25T14:14:15;20.42;;;7.20;;
44480;SDS011;30184;42.018;23.670;2022-11-25T14:16:59;33.55;;;14.32;;
44480;SDS011;30184;42.018;23.670;2022-11-25T14:22:37;7.82;;;4.15;;
44480;SDS011;30184;42.018;23.670;2022-11-25T14:25:26;78.45;;;38.28;;
44480;SDS011;30184;42.018;23.670;2022-11-25T14:27:58;66.63;;;35.00;;
44480;SDS011;30184;42.018;23.670;2022-11-25T14:30:41;57.95;;;33.50;;
44480;SDS011;30184;42.018;23.670;2022-11-25T14:33:17;116.25;;;44.53;;
44480;SDS011;30184;42.018;23.670;2022-11-25T14:35:52;67.50;;;31.63;;
44480;SDS011;30184;42.018;23.670;2022-11-25T14:38:27;86.72;;;44.08;;
44480;SDS011;30184;42.018;23.670;2022-11-25T14:41:07;51.53;;;27.80;;
44480;SDS011;30184;42.018;23.670;2022-11-25T14:43:44;236.93;;;127.45;;
44480;SDS011;30184;42.018;23.670;2022-11-25T14:46:21;259.92;;;138.02;;
44480;SDS011;30184;42.018;23.670;2022-11-25T14:48:52;83.90;;;48.67;;
44480;SDS011;30184;42.018;23.670;2022-11-25T14:51:22;59.45;;;30.70;;
44480;SDS011;30184;42.018;23.670;2022-11-25T14:53:52;45.47;;;22.88;;
44480;SDS011;30184;42.018;23.670;2022-11-25T14:56:27;132.00;;;60.30;;
44480;SDS011;30184;42.018;23.670;2022-11-25T14:58:58;146.18;;;68.55;;
44480;SDS011;30184;42.018;23.670;2022-11-25T15:01:28;73.07;;;39.20;;
44480;SDS011;30184;42.018;23.670;2022-11-25T15:04:03;80.13;;;43.10;;
44480;SDS011;30184;42.018;23.670;2022-11-25T15:06:34;54.95;;;28.30;;
44480;SDS011;30184;42.018;23.670;2022-11-25T15:09:12;79.13;;;44.38;;
44480;SDS011;30184;42.018;23.670;2022-11-25T15:11:48;95.80;;;45.63;;
44480;SDS011;30184;42.018;23.670;2022-11-25T15:14:22;84.57;;;39.40;;
44480;SDS011;30184;42.018;23.670;2022-11-25T15:16:54;99.95;;;45.85;;